createdAt,value
2023-01-05T00:01:07.144Z,20.00
2023-01-05T00:03:36.161Z,22.67
2023-01-05T00:06:08.294Z,28.50
2023-01-05T00:08:37.648Z,30.02
2023-01-05T00:11:24.524Z,31.70
2023-01-05T00:14:15.194Z,22.23
2023-01-05T00:17:00.731Z,34.72
2023-01-05T00:19:46.238Z,32.70
2023-01-05T00:22:32.134Z,21.60
2023-01-05T00:25:03.562Z,29.38
2023-01-05T00:27:37.340Z,22.75
2023-01-05T00:30:06.655Z,25.45
2023-01-05T00:32:34.526Z,25.73
2023-01-05T00:35:03.356Z,27.25
2023-01-05T00:37:35.034Z,21.48
2023-01-05T00:40:03.793Z,25.73
2023-01-05T00:42:31.627Z,22.10
2023-01-05T00:44:59.447Z,24.70
2023-01-05T00:47:27.445Z,25.77
2023-01-05T00:49:55.296Z,23.08
2023-01-05T00:52:23.267Z,23.52
2023-01-05T00:54:52.550Z,30.88
2023-01-05T00:57:20.315Z,24.63
2023-01-05T00:59:48.109Z,21.92
2023-01-05T01:02:16.322Z,18.63
2023-01-05T01:04:44.210Z,29.67
2023-01-05T01:07:12.195Z,22.88
2023-01-05T01:09:41.362Z,30.67
2023-01-05T01:12:10.657Z,17.67
2023-01-05T01:14:39.712Z,28.20
2023-01-05T01:17:07.932Z,21.33
2023-01-05T01:19:35.684Z,25.38
2023-01-05T01:22:03.446Z,30.88
2023-01-05T01:24:31.870Z,27.77
2023-01-05T01:26:59.735Z,20.98
2023-01-05T01:29:29.677Z,20.50
2023-01-05T01:31:57.523Z,28.75
2023-01-05T01:34:25.410Z,23.38
2023-01-05T01:36:55.866Z,23.73
2023-01-05T01:39:24.571Z,21.85
2023-01-05T01:41:52.294Z,22.45
2023-01-05T01:44:54.166Z,21.55
2023-01-05T01:47:28.158Z,24.27
2023-01-05T01:49:58.629Z,25.10
2023-01-05T01:52:28.863Z,22.90
2023-01-05T01:54:57.158Z,23.90
2023-01-05T01:57:27.937Z,25.17
2023-01-05T01:59:59.747Z,21.73
2023-01-05T02:02:29.304Z,25.70
2023-01-05T02:05:01.087Z,24.13
2023-01-05T02:07:33.736Z,22.08
2023-01-05T02:10:03.461Z,29.65
2023-01-05T02:12:41.105Z,25.00
2023-01-05T02:15:23.550Z,29.05
2023-01-05T02:18:06.833Z,35.78
2023-01-05T02:20:46.749Z,25.00
2023-01-05T02:23:36.949Z,23.27
2023-01-05T02:26:22.700Z,27.58
2023-01-05T02:29:13.053Z,27.55
2023-01-05T02:31:47.324Z,18.13
2023-01-05T02:34:22.819Z,26.90
2023-01-05T02:36:55.721Z,23.33
2023-01-05T02:39:30.056Z,27.85
2023-01-05T02:42:02.282Z,23.05
2023-01-05T02:44:31.897Z,28.80
2023-01-05T02:47:03.313Z,21.27
2023-01-05T02:49:34.356Z,28.13
2023-01-05T02:52:05.705Z,26.90
2023-01-05T02:54:39.353Z,20.08
2023-01-05T02:57:13.455Z,28.58
2023-01-05T02:59:44.632Z,23.70
2023-01-05T03:02:19.587Z,27.27
2023-01-05T03:04:53.008Z,30.98
2023-01-05T03:07:27.174Z,27.08
2023-01-05T03:09:55.417Z,24.73
2023-01-05T03:12:46.175Z,25.23
2023-01-05T03:15:21.047Z,27.42
2023-01-05T03:17:53.668Z,26.00
2023-01-05T03:20:24.138Z,19.55
2023-01-05T03:23:11.565Z,27.90
2023-01-05T03:25:59.204Z,23.40
2023-01-05T03:28:48.974Z,22.65
2023-01-05T03:31:41.736Z,26.33
2023-01-05T03:34:35.958Z,27.55
2023-01-05T03:37:08.713Z,29.63
2023-01-05T03:39:39.255Z,30.45
2023-01-05T03:42:09.659Z,26.67
2023-01-05T03:44:39.045Z,17.52
2023-01-05T03:47:07.229Z,17.52
2023-01-05T03:49:37.123Z,21.83
2023-01-05T03:52:05.493Z,24.88
2023-01-05T03:54:33.293Z,29.65
2023-01-05T03:57:01.223Z,20.30
2023-01-05T03:59:29.372Z,23.45
2023-01-05T04:01:57.229Z,23.42
2023-01-05T04:04:25.009Z,27.67
2023-01-05T04:06:54.335Z,27.80
2023-01-05T04:09:22.162Z,24.00
2023-01-05T04:11:49.928Z,29.88
2023-01-05T04:14:17.703Z,34.47
2023-01-05T04:16:45.547Z,30.67
2023-01-05T04:19:13.533Z,31.30
2023-01-05T04:21:41.303Z,25.75
2023-01-05T04:24:12.288Z,22.92
2023-01-05T04:26:41.860Z,22.42
2023-01-05T04:29:10.892Z,20.95
2023-01-05T04:31:38.899Z,26.20
2023-01-05T04:34:06.688Z,29.75
2023-01-05T04:36:34.444Z,28.98
2023-01-05T04:39:02.214Z,23.92
2023-01-05T04:41:31.520Z,24.45
2023-01-05T04:43:59.305Z,25.88
2023-01-05T04:46:27.086Z,25.25
2023-01-05T04:48:54.968Z,26.90
2023-01-05T04:51:22.762Z,26.63
2023-01-05T04:53:50.713Z,28.67
2023-01-05T04:56:18.497Z,26.80
2023-01-05T04:58:47.667Z,29.95
2023-01-05T05:01:15.783Z,30.23
2023-01-05T05:03:43.685Z,22.35
2023-01-05T05:06:11.598Z,20.80
2023-01-05T05:08:39.462Z,25.05
2023-01-05T05:11:07.219Z,25.10
2023-01-05T05:13:35.013Z,32.38
2023-01-05T05:16:04.334Z,20.77
2023-01-05T05:18:32.235Z,27.88
2023-01-05T05:21:00.261Z,22.75
2023-01-05T05:23:28.029Z,29.67
2023-01-05T05:25:55.863Z,23.67
2023-01-05T05:28:28.094Z,27.65
2023-01-05T05:30:57.047Z,30.90
2023-01-05T05:33:26.868Z,25.75
2023-01-05T05:35:54.722Z,31.38
2023-01-05T05:38:22.557Z,23.08
2023-01-05T05:40:50.456Z,25.42
2023-01-05T05:43:18.425Z,28.67
2023-01-05T05:45:50.260Z,26.63
2023-01-05T05:48:18.911Z,28.23
2023-01-05T05:50:48.439Z,33.50
2023-01-05T05:53:16.222Z,31.27
2023-01-05T05:55:44.067Z,25.92
2023-01-05T05:58:11.852Z,32.17
2023-01-05T06:00:39.636Z,25.55
2023-01-05T06:03:07.607Z,27.58
2023-01-05T06:05:35.689Z,33.03
2023-01-05T06:08:05.210Z,39.85
2023-01-05T06:10:33.119Z,25.52
2023-01-05T06:13:01.124Z,20.55
2023-01-05T06:15:28.994Z,31.83
2023-01-05T06:17:56.833Z,27.95
2023-01-05T06:20:24.581Z,27.35
2023-01-05T06:22:52.645Z,26.55
2023-01-05T06:25:21.872Z,29.75
2023-01-05T06:27:49.830Z,36.85
2023-01-05T06:30:17.795Z,28.33
2023-01-05T06:32:45.681Z,21.10
2023-01-05T06:35:13.414Z,28.63
2023-01-05T06:37:41.369Z,27.90
2023-01-05T06:40:11.473Z,35.55
2023-01-05T06:42:41.118Z,27.45
2023-01-05T06:45:11.275Z,34.50
2023-01-05T06:47:39.137Z,25.08
2023-01-05T06:50:08.554Z,29.77
2023-01-05T06:52:39.875Z,32.72
2023-01-05T06:55:09.378Z,39.92
2023-01-05T06:57:37.638Z,24.60
2023-01-05T07:00:09.898Z,24.77
2023-01-05T07:02:37.775Z,35.92
2023-01-05T07:05:06.026Z,38.05
2023-01-05T07:07:33.820Z,23.98
2023-01-05T07:10:01.920Z,35.67
2023-01-05T07:12:29.803Z,28.70
2023-01-05T07:14:58.059Z,31.13
2023-01-05T07:17:28.437Z,28.95
2023-01-05T07:19:56.209Z,27.80
2023-01-05T07:22:24.064Z,26.58
2023-01-05T07:24:51.863Z,32.97
2023-01-05T07:27:19.625Z,21.42
2023-01-05T07:29:47.438Z,36.40
2023-01-05T07:32:15.258Z,23.80
2023-01-05T07:34:51.322Z,27.15
2023-01-05T07:37:23.274Z,36.08
2023-01-05T07:39:51.101Z,29.02
2023-01-05T07:42:18.850Z,44.70
2023-01-05T07:44:46.653Z,38.38
2023-01-05T07:47:14.487Z,24.67
2023-01-05T07:49:42.418Z,31.83
2023-01-05T07:52:11.639Z,38.30
2023-01-05T07:54:39.374Z,29.83
2023-01-05T07:57:07.368Z,42.33
2023-01-05T07:59:35.194Z,24.30
2023-01-05T08:02:03.221Z,31.38
2023-01-05T08:04:31.525Z,31.38
2023-01-05T08:06:59.503Z,24.27
2023-01-05T08:09:46.880Z,30.00
2023-01-05T08:12:14.605Z,31.17
2023-01-05T08:14:42.538Z,36.60
2023-01-05T08:17:10.357Z,30.35
2023-01-05T08:19:38.175Z,30.42
2023-01-05T08:22:06.079Z,30.42
2023-01-05T08:24:35.390Z,34.38
2023-01-05T08:27:03.195Z,27.17
2023-01-05T08:29:31.139Z,33.63
2023-01-05T08:31:59.021Z,38.33
2023-01-05T08:34:32.876Z,33.65
2023-01-05T08:37:02.577Z,38.53
2023-01-05T08:39:30.443Z,23.17
2023-01-05T08:42:02.782Z,29.85
2023-01-05T08:44:30.805Z,35.28
2023-01-05T08:46:58.643Z,30.52
2023-01-05T08:49:26.430Z,30.35
2023-01-05T08:51:54.293Z,36.80
2023-01-05T08:54:22.127Z,30.95
2023-01-05T08:56:50.773Z,24.17
2023-01-05T08:59:20.183Z,29.10
2023-01-05T09:01:48.162Z,35.28
2023-01-05T09:04:16.188Z,33.47
2023-01-05T09:06:44.221Z,31.33
2023-01-05T09:09:12.015Z,33.53
2023-01-05T09:11:44.253Z,30.67
2023-01-05T09:14:14.420Z,23.77
2023-01-05T09:19:32.216Z,35.85
2023-01-05T09:22:00.119Z,35.85
2023-01-05T09:24:27.883Z,34.83
2023-01-05T09:26:56.147Z,28.50
2023-01-05T09:29:24.012Z,35.42
2023-01-05T09:31:53.185Z,29.38
2023-01-05T09:34:21.217Z,28.95
2023-01-05T09:36:49.217Z,31.88
2023-01-05T09:39:17.136Z,34.13
2023-01-05T09:41:47.422Z,35.13
2023-01-05T09:44:23.609Z,35.75
2023-01-05T09:46:55.441Z,38.50
2023-01-05T09:49:26.073Z,30.45
2023-01-05T09:52:00.442Z,29.90
2023-01-05T09:54:30.914Z,34.78
2023-01-05T09:57:09.544Z,38.03
2023-01-05T09:59:39.921Z,33.13
2023-01-05T10:02:29.561Z,30.90
2023-01-05T10:04:59.327Z,33.08
2023-01-05T10:07:37.233Z,32.58
2023-01-05T10:10:12.546Z,31.10
2023-01-05T10:13:02.862Z,31.83
2023-01-05T10:15:35.701Z,32.10
2023-01-05T10:18:12.213Z,35.67
2023-01-05T10:20:51.319Z,38.58
2023-01-05T10:23:32.577Z,43.33
2023-01-05T10:26:07.971Z,39.33
2023-01-05T10:28:43.284Z,39.35
2023-01-05T10:31:23.329Z,26.73
2023-01-05T10:34:00.230Z,32.25
2023-01-05T10:39:56.541Z,41.08
2023-01-05T10:42:37.719Z,36.20
2023-01-05T10:45:10.648Z,32.83
2023-01-05T10:47:40.620Z,37.17
2023-01-05T10:50:35.659Z,35.10
2023-01-05T10:53:10.774Z,37.42
2023-01-05T10:55:45.961Z,35.50
2023-01-05T10:58:24.984Z,32.33
2023-01-05T11:00:55.416Z,37.83
2023-01-05T11:03:57.262Z,35.35
2023-01-05T11:06:24.472Z,35.28
2023-01-05T11:08:52.780Z,36.17
2023-01-05T11:11:23.576Z,36.92
2023-01-05T11:13:53.941Z,40.22
2023-01-05T11:16:24.143Z,31.83
2023-01-05T11:18:54.931Z,31.45
2023-01-05T11:21:25.463Z,34.28
2023-01-05T11:23:55.532Z,40.03
2023-01-05T11:26:32.837Z,38.88
2023-01-05T11:29:03.713Z,44.72
2023-01-05T11:31:37.681Z,43.25
2023-01-05T11:34:10.264Z,34.95
2023-01-05T11:36:40.873Z,34.80
2023-01-05T11:39:20.791Z,32.67
2023-01-05T11:41:48.851Z,38.38
2023-01-05T11:44:22.955Z,29.88
2023-01-05T11:46:51.828Z,38.22
2023-01-05T11:49:20.638Z,36.45
2023-01-05T11:51:49.892Z,40.28
2023-01-05T11:54:33.678Z,34.05
2023-01-05T11:57:17.765Z,41.88
2023-01-05T11:59:46.940Z,36.33
2023-01-05T12:02:43.059Z,25.83
2023-01-05T12:05:25.963Z,27.48
2023-01-05T12:07:59.613Z,33.90
2023-01-05T12:11:01.155Z,34.22
2023-01-05T12:13:46.843Z,29.85
2023-01-05T12:16:26.482Z,33.28
2023-01-05T12:19:40.096Z,35.58
2023-01-05T12:22:49.079Z,31.13
2023-01-05T12:25:33.605Z,34.90
2023-01-05T12:28:35.488Z,32.60
2023-01-05T12:34:28.563Z,31.88
2023-01-05T12:37:15.778Z,27.40
2023-01-05T12:40:04.903Z,36.03
2023-01-05T12:42:55.018Z,34.30
2023-01-05T12:45:38.024Z,26.60
2023-01-05T12:48:08.479Z,24.15
2023-01-05T12:50:43.110Z,35.65
2023-01-05T12:53:20.006Z,27.00
2023-01-05T12:55:51.246Z,25.35
2023-01-05T12:58:27.464Z,29.77
2023-01-05T13:00:57.852Z,37.00
2023-01-05T13:03:31.637Z,29.42
2023-01-05T13:06:06.273Z,32.97
2023-01-05T13:08:39.505Z,38.05
2023-01-05T13:11:15.737Z,36.13
2023-01-05T13:13:48.949Z,25.80
2023-01-05T13:16:20.340Z,30.52
2023-01-05T13:18:53.122Z,37.22
2023-01-05T13:21:22.914Z,28.05
2023-01-05T13:23:55.033Z,33.38
2023-01-05T13:26:23.632Z,28.60
2023-01-05T13:28:55.675Z,29.00
2023-01-05T13:31:58.775Z,25.38
2023-01-05T13:35:02.900Z,29.80
2023-01-05T13:37:54.963Z,26.65
2023-01-05T13:40:54.011Z,39.63
2023-01-05T13:44:00.272Z,24.17
2023-01-05T13:46:44.558Z,27.77
2023-01-05T13:49:29.201Z,39.35
2023-01-05T13:51:58.899Z,25.88
2023-01-05T13:54:49.321Z,26.00
2023-01-05T13:57:24.743Z,32.30
2023-01-05T14:00:05.390Z,29.55
2023-01-05T14:02:39.505Z,30.83
2023-01-05T14:05:16.282Z,27.50
2023-01-05T14:10:22.527Z,32.90
2023-01-05T14:12:54.164Z,29.08
2023-01-05T14:15:38.623Z,24.00
2023-01-05T14:18:09.037Z,37.78
2023-01-05T14:20:44.303Z,31.50
2023-01-05T14:23:55.853Z,29.63
2023-01-05T14:27:05.365Z,26.33
2023-01-05T14:30:09.980Z,20.88
2023-01-05T14:32:40.156Z,23.30
2023-01-05T14:35:29.328Z,30.42
2023-01-05T14:38:00.395Z,28.52
2023-01-05T14:40:46.791Z,23.88
2023-01-05T14:43:29.346Z,29.00
2023-01-05T14:46:06.423Z,26.27
2023-01-05T14:48:37.690Z,33.92
2023-01-05T14:51:18.516Z,34.25
2023-01-05T14:53:48.761Z,40.72
2023-01-05T14:56:20.738Z,47.60
2023-01-05T14:58:57.243Z,38.10
2023-01-05T15:01:30.503Z,39.30
2023-01-05T15:04:04.962Z,37.13
2023-01-05T15:06:48.149Z,42.72
2023-01-05T15:09:34.211Z,33.22
2023-01-05T15:12:26.277Z,35.78
2023-01-05T15:15:13.166Z,34.50
2023-01-05T15:17:55.842Z,43.53
2023-01-05T15:20:54.181Z,43.80
2023-01-05T15:23:58.367Z,31.48
2023-01-05T15:26:43.697Z,33.30
2023-01-05T15:29:46.429Z,35.85
2023-01-05T15:32:21.220Z,34.75
2023-01-05T15:34:55.619Z,31.40
2023-01-05T15:37:27.021Z,28.38
2023-01-05T15:39:56.536Z,33.22
2023-01-05T15:42:38.762Z,34.08
2023-01-05T15:45:09.142Z,32.45
2023-01-05T15:47:39.439Z,27.80
2023-01-05T15:50:17.331Z,28.08
2023-01-05T15:52:53.776Z,23.75
2023-01-05T15:55:21.782Z,23.27
2023-01-05T15:57:55.623Z,29.13
2023-01-05T16:00:26.268Z,25.38
2023-01-05T16:02:54.091Z,34.30
2023-01-05T16:05:23.621Z,23.73
2023-01-05T16:07:56.224Z,24.58
2023-01-05T16:10:28.780Z,21.58
2023-01-05T16:13:04.048Z,20.58
2023-01-05T16:15:35.263Z,25.52
2023-01-05T16:18:05.898Z,31.85
2023-01-05T16:20:35.821Z,20.42
2023-01-05T16:23:11.584Z,24.92
2023-01-05T16:25:42.875Z,28.43
2023-01-05T16:28:17.491Z,33.90
2023-01-05T16:30:47.203Z,20.05
2023-01-05T16:33:28.399Z,23.25
2023-01-05T16:36:13.161Z,22.83
2023-01-05T16:38:42.034Z,21.48
2023-01-05T16:41:16.650Z,23.95
2023-01-05T16:43:51.743Z,19.08
2023-01-05T16:46:39.027Z,23.13
2023-01-05T16:51:53.594Z,26.73
2023-01-05T16:54:34.992Z,20.55
2023-01-05T16:57:05.431Z,24.75
2023-01-05T16:59:46.893Z,22.13
2023-01-05T17:02:40.782Z,19.40
2023-01-05T17:05:08.742Z,22.50
2023-01-05T17:07:39.408Z,24.65
2023-01-05T17:10:08.957Z,18.83
2023-01-05T17:12:36.812Z,19.52
2023-01-05T17:15:08.305Z,17.98
2023-01-05T17:17:36.199Z,14.25
2023-01-05T17:20:04.261Z,15.35
2023-01-05T17:22:31.995Z,19.05
2023-01-05T17:27:28.651Z,14.02
2023-01-05T17:32:30.675Z,17.65
2023-01-05T17:34:58.487Z,22.13
2023-01-05T17:37:26.327Z,13.18
2023-01-05T17:39:54.134Z,14.95
2023-01-05T17:42:39.346Z,14.25
2023-01-05T17:45:08.248Z,15.93
2023-01-05T17:47:37.376Z,10.93
2023-01-05T17:50:06.204Z,14.23
2023-01-05T17:52:34.161Z,12.45
2023-01-05T17:55:02.178Z,10.38
2023-01-05T17:57:30.051Z,12.07
2023-01-05T17:59:57.972Z,14.55
2023-01-05T18:02:25.838Z,14.93
2023-01-05T18:04:56.559Z,17.67
2023-01-05T18:07:24.635Z,15.75
2023-01-05T18:09:52.647Z,16.27
2023-01-05T18:12:20.425Z,14.20
2023-01-05T18:14:48.229Z,12.93
2023-01-05T18:17:16.358Z,12.57
2023-01-05T18:19:44.215Z,12.60
2023-01-05T18:22:13.621Z,13.27
2023-01-05T18:24:42.063Z,13.40
2023-01-05T18:27:11.048Z,11.68
2023-01-05T18:29:39.919Z,13.48
2023-01-05T18:32:09.022Z,12.38
2023-01-05T18:34:37.114Z,11.30
2023-01-05T18:37:06.327Z,12.00
2023-01-05T18:39:39.756Z,12.15
2023-01-05T18:42:07.596Z,14.95
2023-01-05T18:44:35.332Z,10.27
2023-01-05T18:47:03.163Z,8.25
2023-01-05T18:49:31.009Z,7.10
2023-01-05T18:51:58.839Z,9.80
2023-01-05T18:54:26.918Z,7.07
2023-01-05T18:56:56.074Z,6.65
2023-01-05T18:59:24.084Z,4.85
2023-01-05T19:01:52.013Z,8.30
2023-01-05T19:04:20.187Z,5.63
2023-01-05T19:06:48.142Z,6.35
2023-01-05T19:09:16.171Z,5.95
2023-01-05T19:11:46.596Z,6.28
2023-01-05T19:14:17.953Z,3.38
2023-01-05T19:16:47.243Z,7.53
2023-01-05T19:19:15.777Z,4.18
2023-01-05T19:21:46.113Z,2.30
2023-01-05T19:24:16.828Z,7.13
2023-01-05T19:26:45.761Z,3.90
2023-01-05T19:29:15.665Z,4.88
2023-01-05T19:31:44.061Z,6.72
2023-01-05T19:34:14.981Z,3.47
2023-01-05T19:36:42.979Z,6.97
2023-01-05T19:39:13.732Z,6.07
2023-01-05T19:41:45.038Z,2.92
2023-01-05T19:44:17.429Z,5.20
2023-01-05T19:46:46.111Z,4.10
2023-01-05T19:49:16.893Z,3.90
2023-01-05T19:51:45.354Z,2.78
2023-01-05T19:54:14.583Z,4.50
2023-01-05T19:56:43.907Z,4.55
2023-01-05T19:59:17.844Z,4.88
2023-01-05T20:01:46.395Z,4.03
2023-01-05T20:04:14.357Z,8.95
2023-01-05T20:06:44.237Z,3.75
2023-01-05T20:09:14.281Z,4.97
2023-01-05T20:11:44.424Z,3.75
2023-01-05T20:14:14.477Z,6.65
2023-01-05T20:16:45.742Z,3.28
2023-01-05T20:19:14.469Z,3.90
2023-01-05T20:21:42.530Z,2.63
2023-01-05T20:24:14.606Z,3.47
2023-01-05T20:26:43.127Z,6.57
2023-01-05T20:29:11.072Z,3.45
2023-01-05T20:31:41.399Z,7.72
2023-01-05T20:34:15.197Z,5.15
2023-01-05T20:36:43.567Z,2.67
2023-01-05T20:39:13.900Z,3.10
2023-01-05T20:41:44.343Z,4.68
2023-01-05T20:44:14.083Z,5.95
2023-01-05T20:46:44.603Z,2.70
2023-01-05T20:49:14.448Z,3.78
2023-01-05T20:51:42.358Z,3.72
2023-01-05T20:54:11.503Z,3.88
2023-01-05T20:56:41.734Z,6.22
2023-01-05T20:59:13.734Z,1.92
2023-01-05T21:01:42.781Z,6.13
2023-01-05T21:04:10.767Z,3.88
2023-01-05T21:06:40.440Z,4.43
2023-01-05T21:09:08.995Z,3.65
2023-01-05T21:11:37.989Z,2.78
2023-01-05T21:14:08.604Z,4.43
2023-01-05T21:16:39.123Z,5.47
2023-01-05T21:19:07.678Z,4.80
2023-01-05T21:21:35.496Z,2.70
2023-01-05T21:24:07.910Z,4.10
2023-01-05T21:26:35.861Z,5.90
2023-01-05T21:29:05.694Z,8.85
2023-01-05T21:31:34.823Z,3.88
2023-01-05T21:34:02.648Z,3.03
2023-01-05T21:36:32.465Z,8.30
2023-01-05T21:39:03.975Z,7.00
2023-01-05T21:41:51.808Z,3.58
2023-01-05T21:44:20.375Z,4.82
2023-01-05T21:46:49.563Z,5.60
2023-01-05T21:49:18.152Z,6.97
2023-01-05T21:52:03.982Z,4.57
2023-01-05T21:54:49.460Z,6.75
2023-01-05T21:57:18.680Z,4.05
2023-01-05T21:59:46.699Z,4.55
2023-01-05T22:02:15.697Z,6.93
2023-01-05T22:04:43.976Z,5.55
2023-01-05T22:07:12.195Z,7.25
2023-01-05T22:09:40.449Z,5.38
2023-01-05T22:12:09.235Z,4.47
2023-01-05T22:14:38.761Z,4.15
2023-01-05T22:17:08.202Z,2.97
2023-01-05T22:19:36.060Z,3.05
2023-01-05T22:22:03.958Z,6.78
2023-01-05T22:24:31.750Z,5.00
2023-01-05T22:26:59.790Z,4.28
2023-01-05T22:29:27.738Z,7.15
2023-01-05T22:31:58.780Z,3.97
2023-01-05T22:34:27.913Z,4.65
2023-01-05T22:36:55.654Z,5.22
2023-01-05T22:39:23.544Z,3.75
2023-01-05T22:41:51.766Z,10.07
2023-01-05T22:44:19.631Z,7.28
2023-01-05T22:46:47.451Z,4.07
2023-01-05T22:49:16.758Z,4.90
2023-01-05T22:51:46.338Z,8.18
2023-01-05T22:54:14.164Z,4.32
2023-01-05T22:56:42.535Z,5.28
2023-01-05T22:59:10.315Z,5.95
2023-01-05T23:01:39.728Z,7.65
2023-01-05T23:04:08.413Z,4.35
2023-01-05T23:06:37.599Z,4.00
2023-01-05T23:09:07.718Z,8.38
2023-01-05T23:11:37.880Z,6.50
2023-01-05T23:14:08.003Z,7.18
2023-01-05T23:16:36.654Z,9.05
2023-01-05T23:19:05.491Z,4.50
2023-01-05T23:21:33.802Z,6.57
2023-01-05T23:24:02.998Z,5.53
2023-01-05T23:26:31.154Z,7.78
2023-01-05T23:28:59.362Z,7.97
2023-01-05T23:31:27.444Z,7.32
2023-01-05T23:33:55.850Z,6.78
2023-01-05T23:36:24.716Z,6.80
2023-01-05T23:38:52.752Z,6.60
2023-01-05T23:41:22.281Z,6.00
2023-01-05T23:43:50.146Z,4.18
2023-01-05T23:46:20.187Z,6.05
2023-01-05T23:48:49.184Z,6.63
2023-01-05T23:51:17.653Z,7.18
2023-01-05T23:53:48.350Z,6.93
2023-01-05T23:56:18.501Z,4.05
2023-01-05T23:58:48.075Z,10.35
